Nobe, West Virginia
Current Conditions -  °F | °C
As of 4:00 PM on Thursday 27 Nov 2014 (Local Time) from KPKB Reporting Station
Light Snow Light Snow  
Wind Chill: 23°   Ceiling: 3100
Heat Index: 32°   Visibility: 1.5mi
Dew Point: 26°   Wind: 13mph
Humidity: 79%   Direction: 300°WNW
Pressure: 30.24"   Gusts: NA
Location:  38.9756°N, 80.9915°W
Report Text: KPKB 272100Z AUTO 30011KT 1 1/2SM -SN BKN031 OVC040 00/M03 A3024 RMK AO2 P0000 T00001033
Loading
Personal Weather Stations






























Interactive Weather Map New forecast layout! Learn more

10-Day Weather Forecast

Advertisements
Track Severe Weather on mobile